Pagrindinis puslapis
METAR-TAF:

METAR-TAF

Oro uostai :

San Antonio del Táchira, Venesuela

platuma: 07-51N, ilguma: 072-27W, Aukštis: 377 m

METAR: trūkstamas

Laikas: 02:00 (06:00 UTC)

Prognozė

Ataskaita buvo paskelbta 2 valandos ir 0 minutes, ne 04:00 UTC
Prognozė galioja nuo 01 metu 06 UTC su 02 metu 06 UTC
Vėjas 4 kt iš Vakarų
Matomumas 10 km arba daugiau
Išsisklaidę debesys ne aukštis 1600 ft
Laikinai
nuo 01 metu 06 UTC su 01 metu 10 UTC
Vėjas 5 kt iš Pietų
Matomumas: 9000 m
Su prošvaistėmis ne aukštis 3000 ft
dulksna

TAF: SVSA 010400Z 0106/0206 28004KT 9999 SCT016 TX30/19Z TN22/08Z TEMPO 0106/0110 18005KT 9000 -DZ BKN030

Orai ataskaitas ir orų prognozės (METAR, TAF).

turimą stotys yra geltonos ir raudonos taškus žemėlapyje.

Perkelti pele per norėdami pamatyti stoties vardą.

Tada spustelėkite, norėdami matyti oro stebėjimo ir prognozės.

Norėdami pakeisti žemėlapį: spustelėkite ant žalios mygtukų su juodo kryžiaus žemyn,; žalią mygtuką su brūkšneliu, jei norite nutolinti; arba žalių rodyklių gretimoms žemėlapius.


METAR-TAF: